LVWMI EZP-SADL

Flight info

Callsign LVWMI
Flight time N/A
Altitude 1000
Route PTA
Aircraft C208/L-SDFGR/C

Departure

Time N/A
Airport EZP

Arrival

Time 2026-04-13 19:37
Airport La Plata Airport (SADL)
Time Latitude Longitude Altitude Speed Heading
2026-04-13 19:22 -34.74399 -58.20601 17 ft 0 kts 125°
2026-04-13 19:25 -34.74400 -58.20597 18 ft 6 kts 102°
2026-04-13 19:25 -34.74361 -58.20577 16 ft 0 kts 320°
2026-04-13 19:26 -34.74328 -58.20615 16 ft 24 kts 317°
2026-04-13 19:26 -34.74296 -58.20673 16 ft 3 kts 342°
2026-04-13 19:26 -34.74302 -58.20645 16 ft 0 kts 143°
2026-04-13 19:27 -34.74334 -58.20615 16 ft 35 kts 141°
2026-04-13 19:27 -34.74750 -58.20245 116 ft 98 kts 139°
2026-04-13 19:27 -34.75363 -58.19653 378 ft 121 kts 136°
2026-04-13 19:27 -34.75962 -58.18972 904 ft 115 kts 130°
2026-04-13 19:28 -34.76594 -58.18193 998 ft 144 kts 132°
2026-04-13 19:28 -34.77338 -58.17314 1098 ft 149 kts 132°
2026-04-13 19:28 -34.78074 -58.16428 1219 ft 147 kts 131°
2026-04-13 19:28 -34.78774 -58.15583 1456 ft 140 kts 132°
2026-04-13 19:29 -34.79253 -58.15017 1504 ft 146 kts 133°
2026-04-13 19:29 -34.80258 -58.13827 1513 ft 155 kts 133°
2026-04-13 19:29 -34.81031 -58.12899 1508 ft 155 kts 131°
2026-04-13 19:29 -34.81789 -58.11972 1501 ft 153 kts 132°
2026-04-13 19:30 -34.82293 -58.11372 1489 ft 152 kts 133°
2026-04-13 19:30 -34.83076 -58.10530 1505 ft 150 kts 137°
2026-04-13 19:30 -34.84176 -58.09495 1513 ft 153 kts 138°
2026-04-13 19:30 -34.84742 -58.08948 1517 ft 155 kts 135°
2026-04-13 19:31 -34.85540 -58.08061 1522 ft 157 kts 132°
2026-04-13 19:31 -34.86291 -58.07085 1517 ft 158 kts 128°
2026-04-13 19:31 -34.87007 -58.06086 1515 ft 155 kts 127°
2026-04-13 19:31 -34.87718 -58.05114 1514 ft 156 kts 128°
2026-04-13 19:32 -34.88426 -58.04106 1509 ft 157 kts 127°
2026-04-13 19:32 -34.89130 -58.03089 1523 ft 157 kts 127°
2026-04-13 19:32 -34.89983 -58.02242 1518 ft 160 kts 142°
2026-04-13 19:32 -34.90904 -58.01500 1530 ft 161 kts 142°
2026-04-13 19:33 -34.91840 -58.00745 1525 ft 160 kts 142°
2026-04-13 19:33 -34.92777 -58.00006 1530 ft 159 kts 143°
2026-04-13 19:33 -34.93697 -57.99271 1527 ft 157 kts 142°
2026-04-13 19:34 -34.95524 -57.97809 1526 ft 159 kts 142°
2026-04-13 19:34 -34.96450 -57.97065 1451 ft 159 kts 142°
2026-04-13 19:34 -34.97356 -57.96326 1321 ft 155 kts 142°
2026-04-13 19:34 -34.98256 -57.95620 1196 ft 152 kts 142°
2026-04-13 19:35 -34.99047 -57.94802 1051 ft 146 kts 119°
2026-04-13 19:35 -34.99417 -57.93712 1056 ft 128 kts 102°
2026-04-13 19:35 -34.99543 -57.92731 986 ft 110 kts 94°
2026-04-13 19:35 -34.99619 -57.91860 912 ft 99 kts 93°
2026-04-13 19:36 -34.99670 -57.91031 777 ft 100 kts 90°
2026-04-13 19:36 -34.99439 -57.90304 678 ft 92 kts 46°
2026-04-13 19:36 -34.98864 -57.89919 377 ft 95 kts 25°
2026-04-13 19:36 -34.98267 -57.89716 224 ft 86 kts 19°
2026-04-13 19:37 -34.97692 -57.89540 102 ft 84 kts 17°
2026-04-13 19:37 -34.97171 -57.89383 62 ft 63 kts 18°
2026-04-13 19:37 -34.96874 -57.89290 65 ft 12 kts 13°
2026-04-13 19:37 -34.96748 -57.89250 67 ft 21 kts 13°
2026-04-13 19:38 -34.96616 -57.89209 67 ft 19 kts 15°
2026-04-13 19:38 -34.96488 -57.89172 66 ft 18 kts 12°
2026-04-13 19:38 -34.96367 -57.89136 63 ft 18 kts
2026-04-13 19:38 -34.96249 -57.89194 64 ft 19 kts 332°
2026-04-13 19:39 -34.96140 -57.89280 61 ft 19 kts 320°
2026-04-13 19:39 -34.96065 -57.89376 62 ft 6 kts 297°
2026-04-13 19:39 -34.96064 -57.89378 63 ft 0 kts 305°